sensor_id;sensor_type;location;lat;lon;timestamp;P1;durP1;ratioP1;P2;durP2;ratioP2
68484;SDS011;55472;50.060;21.960;2023-03-23T00:01:11;9.33;;;4.10;;
68484;SDS011;55472;50.060;21.960;2023-03-23T00:03:40;13.02;;;4.75;;
68484;SDS011;55472;50.060;21.960;2023-03-23T00:06:07;10.90;;;4.03;;
68484;SDS011;55472;50.060;21.960;2023-03-23T00:08:34;8.90;;;4.10;;
68484;SDS011;55472;50.060;21.960;2023-03-23T00:11:10;9.88;;;4.15;;
68484;SDS011;55472;50.060;21.960;2023-03-23T00:13:45;9.17;;;4.20;;
68484;SDS011;55472;50.060;21.960;2023-03-23T00:16:16;8.45;;;4.07;;
68484;SDS011;55472;50.060;21.960;2023-03-23T00:18:47;11.15;;;4.07;;
68484;SDS011;55472;50.060;21.960;2023-03-23T00:21:18;10.82;;;4.45;;
68484;SDS011;55472;50.060;21.960;2023-03-23T00:23:45;10.27;;;3.90;;
68484;SDS011;55472;50.060;21.960;2023-03-23T00:26:13;11.10;;;3.93;;
68484;SDS011;55472;50.060;21.960;2023-03-23T00:28:39;12.00;;;3.72;;
68484;SDS011;55472;50.060;21.960;2023-03-23T00:31:06;9.35;;;4.30;;
68484;SDS011;55472;50.060;21.960;2023-03-23T00:33:35;10.55;;;4.15;;
68484;SDS011;55472;50.060;21.960;2023-03-23T00:36:06;9.48;;;3.78;;
68484;SDS011;55472;50.060;21.960;2023-03-23T00:38:40;9.37;;;3.70;;
68484;SDS011;55472;50.060;21.960;2023-03-23T00:41:07;9.77;;;4.13;;
68484;SDS011;55472;50.060;21.960;2023-03-23T00:43:36;9.50;;;4.30;;
68484;SDS011;55472;50.060;21.960;2023-03-23T00:46:04;9.32;;;3.67;;
68484;SDS011;55472;50.060;21.960;2023-03-23T00:48:35;8.63;;;3.65;;
68484;SDS011;55472;50.060;21.960;2023-03-23T00:51:10;9.17;;;3.93;;
68484;SDS011;55472;50.060;21.960;2023-03-23T00:53:40;8.88;;;3.83;;
68484;SDS011;55472;50.060;21.960;2023-03-23T00:56:07;8.85;;;3.90;;
68484;SDS011;55472;50.060;21.960;2023-03-23T00:58:35;10.00;;;4.03;;
68484;SDS011;55472;50.060;21.960;2023-03-23T01:01:01;11.75;;;4.30;;
68484;SDS011;55472;50.060;21.960;2023-03-23T01:03:29;9.53;;;4.10;;
68484;SDS011;55472;50.060;21.960;2023-03-23T01:05:55;10.52;;;4.32;;
68484;SDS011;55472;50.060;21.960;2023-03-23T01:08:23;10.70;;;4.15;;
68484;SDS011;55472;50.060;21.960;2023-03-23T01:10:49;9.80;;;4.32;;
68484;SDS011;55472;50.060;21.960;2023-03-23T01:13:16;12.05;;;4.70;;
68484;SDS011;55472;50.060;21.960;2023-03-23T01:15:42;8.83;;;3.97;;
68484;SDS011;55472;50.060;21.960;2023-03-23T01:18:09;10.55;;;4.70;;
68484;SDS011;55472;50.060;21.960;2023-03-23T01:20:36;9.43;;;4.30;;
68484;SDS011;55472;50.060;21.960;2023-03-23T01:23:03;11.10;;;4.32;;
68484;SDS011;55472;50.060;21.960;2023-03-23T01:25:30;8.50;;;4.07;;
68484;SDS011;55472;50.060;21.960;2023-03-23T01:28:01;9.33;;;3.70;;
68484;SDS011;55472;50.060;21.960;2023-03-23T01:30:27;9.80;;;4.20;;
68484;SDS011;55472;50.060;21.960;2023-03-23T01:32:54;9.48;;;3.97;;
68484;SDS011;55472;50.060;21.960;2023-03-23T01:35:21;9.70;;;4.03;;
68484;SDS011;55472;50.060;21.960;2023-03-23T01:37:47;9.20;;;4.00;;
68484;SDS011;55472;50.060;21.960;2023-03-23T01:40:15;9.00;;;4.20;;
68484;SDS011;55472;50.060;21.960;2023-03-23T01:42:41;11.00;;;4.05;;
68484;SDS011;55472;50.060;21.960;2023-03-23T01:47:57;9.75;;;4.18;;
68484;SDS011;55472;50.060;21.960;2023-03-23T01:50:26;9.93;;;3.80;;
68484;SDS011;55472;50.060;21.960;2023-03-23T01:52:56;8.33;;;3.53;;
68484;SDS011;55472;50.060;21.960;2023-03-23T01:55:25;11.20;;;4.43;;
68484;SDS011;55472;50.060;21.960;2023-03-23T01:57:53;9.32;;;3.92;;
68484;SDS011;55472;50.060;21.960;2023-03-23T02:00:21;8.77;;;3.92;;
68484;SDS011;55472;50.060;21.960;2023-03-23T02:02:49;7.47;;;3.33;;
68484;SDS011;55472;50.060;21.960;2023-03-23T02:05:22;9.30;;;4.00;;
68484;SDS011;55472;50.060;21.960;2023-03-23T02:07:58;8.40;;;3.60;;
68484;SDS011;55472;50.060;21.960;2023-03-23T02:10:31;8.95;;;3.75;;
68484;SDS011;55472;50.060;21.960;2023-03-23T02:12:59;9.93;;;3.60;;
68484;SDS011;55472;50.060;21.960;2023-03-23T02:15:39;9.05;;;3.80;;
68484;SDS011;55472;50.060;21.960;2023-03-23T02:21:20;7.28;;;3.30;;
68484;SDS011;55472;50.060;21.960;2023-03-23T02:24:08;8.70;;;3.60;;
68484;SDS011;55472;50.060;21.960;2023-03-23T02:27:00;7.25;;;3.28;;
68484;SDS011;55472;50.060;21.960;2023-03-23T02:29:47;7.90;;;3.72;;
68484;SDS011;55472;50.060;21.960;2023-03-23T02:32:51;9.67;;;3.37;;
68484;SDS011;55472;50.060;21.960;2023-03-23T02:38:13;7.38;;;3.15;;
68484;SDS011;55472;50.060;21.960;2023-03-23T02:40:47;8.23;;;3.20;;
68484;SDS011;55472;50.060;21.960;2023-03-23T02:43:19;7.50;;;3.22;;
68484;SDS011;55472;50.060;21.960;2023-03-23T02:45:49;9.40;;;3.40;;
68484;SDS011;55472;50.060;21.960;2023-03-23T02:48:17;7.45;;;3.50;;
68484;SDS011;55472;50.060;21.960;2023-03-23T02:50:49;8.50;;;3.60;;
68484;SDS011;55472;50.060;21.960;2023-03-23T02:53:19;9.20;;;3.17;;
68484;SDS011;55472;50.060;21.960;2023-03-23T02:55:49;11.30;;;3.75;;
68484;SDS011;55472;50.060;21.960;2023-03-23T02:58:19;8.73;;;3.77;;
68484;SDS011;55472;50.060;21.960;2023-03-23T03:00:45;10.23;;;3.83;;
68484;SDS011;55472;50.060;21.960;2023-03-23T03:03:16;8.23;;;3.65;;
68484;SDS011;55472;50.060;21.960;2023-03-23T03:11:18;8.77;;;3.60;;
68484;SDS011;55472;50.060;21.960;2023-03-23T03:14:02;7.97;;;3.55;;
68484;SDS011;55472;50.060;21.960;2023-03-23T03:16:40;8.23;;;3.60;;
68484;SDS011;55472;50.060;21.960;2023-03-23T03:19:14;9.65;;;3.60;;
68484;SDS011;55472;50.060;21.960;2023-03-23T03:21:52;7.72;;;3.50;;
68484;SDS011;55472;50.060;21.960;2023-03-23T03:24:20;8.47;;;3.17;;
68484;SDS011;55472;50.060;21.960;2023-03-23T03:26:48;8.98;;;3.70;;
68484;SDS011;55472;50.060;21.960;2023-03-23T03:29:20;8.65;;;3.70;;
68484;SDS011;55472;50.060;21.960;2023-03-23T03:31:50;8.73;;;3.53;;
68484;SDS011;55472;50.060;21.960;2023-03-23T03:34:21;7.82;;;3.45;;
68484;SDS011;55472;50.060;21.960;2023-03-23T03:36:50;8.37;;;3.20;;
68484;SDS011;55472;50.060;21.960;2023-03-23T03:39:20;7.43;;;3.10;;
68484;SDS011;55472;50.060;21.960;2023-03-23T03:41:47;7.70;;;3.55;;
68484;SDS011;55472;50.060;21.960;2023-03-23T03:44:13;8.18;;;3.38;;
68484;SDS011;55472;50.060;21.960;2023-03-23T03:46:41;8.05;;;3.42;;
68484;SDS011;55472;50.060;21.960;2023-03-23T03:49:08;9.37;;;3.50;;
68484;SDS011;55472;50.060;21.960;2023-03-23T03:51:39;8.15;;;3.63;;
68484;SDS011;55472;50.060;21.960;2023-03-23T03:54:06;8.77;;;3.67;;
68484;SDS011;55472;50.060;21.960;2023-03-23T03:56:33;7.47;;;3.83;;
68484;SDS011;55472;50.060;21.960;2023-03-23T03:59:05;8.52;;;3.40;;
68484;SDS011;55472;50.060;21.960;2023-03-23T04:01:33;8.23;;;2.97;;
68484;SDS011;55472;50.060;21.960;2023-03-23T04:04:00;9.27;;;3.78;;
68484;SDS011;55472;50.060;21.960;2023-03-23T04:06:26;9.60;;;3.72;;
68484;SDS011;55472;50.060;21.960;2023-03-23T04:08:53;9.80;;;3.50;;
68484;SDS011;55472;50.060;21.960;2023-03-23T04:11:21;7.15;;;3.40;;
68484;SDS011;55472;50.060;21.960;2023-03-23T04:13:47;8.13;;;3.07;;
68484;SDS011;55472;50.060;21.960;2023-03-23T04:16:13;7.68;;;3.60;;
68484;SDS011;55472;50.060;21.960;2023-03-23T04:18:41;9.68;;;3.90;;
68484;SDS011;55472;50.060;21.960;2023-03-23T04:21:08;7.05;;;3.13;;
68484;SDS011;55472;50.060;21.960;2023-03-23T04:23:34;8.60;;;3.33;;
68484;SDS011;55472;50.060;21.960;2023-03-23T04:26:02;8.57;;;3.13;;
68484;SDS011;55472;50.060;21.960;2023-03-23T04:28:29;8.23;;;3.08;;
68484;SDS011;55472;50.060;21.960;2023-03-23T04:30:59;5.63;;;2.58;;
68484;SDS011;55472;50.060;21.960;2023-03-23T04:33:26;7.43;;;3.30;;
68484;SDS011;55472;50.060;21.960;2023-03-23T04:35:56;8.70;;;3.80;;
68484;SDS011;55472;50.060;21.960;2023-03-23T04:38:26;7.80;;;3.40;;
68484;SDS011;55472;50.060;21.960;2023-03-23T04:40:53;7.88;;;3.50;;
68484;SDS011;55472;50.060;21.960;2023-03-23T04:43:20;8.25;;;3.28;;
68484;SDS011;55472;50.060;21.960;2023-03-23T04:45:53;8.10;;;3.67;;
68484;SDS011;55472;50.060;21.960;2023-03-23T04:48:22;7.88;;;3.53;;
68484;SDS011;55472;50.060;21.960;2023-03-23T04:50:53;8.00;;;3.90;;
68484;SDS011;55472;50.060;21.960;2023-03-23T04:53:20;8.43;;;3.70;;
68484;SDS011;55472;50.060;21.960;2023-03-23T04:55:47;7.20;;;3.50;;
68484;SDS011;55472;50.060;21.960;2023-03-23T04:58:14;6.93;;;3.08;;
68484;SDS011;55472;50.060;21.960;2023-03-23T05:00:42;9.02;;;3.25;;
68484;SDS011;55472;50.060;21.960;2023-03-23T05:03:11;9.47;;;3.77;;
68484;SDS011;55472;50.060;21.960;2023-03-23T05:05:42;8.25;;;3.78;;
68484;SDS011;55472;50.060;21.960;2023-03-23T05:08:12;8.63;;;3.13;;
68484;SDS011;55472;50.060;21.960;2023-03-23T05:10:39;9.57;;;4.45;;
68484;SDS011;55472;50.060;21.960;2023-03-23T05:13:06;8.30;;;3.53;;
68484;SDS011;55472;50.060;21.960;2023-03-23T05:15:32;7.43;;;3.50;;
68484;SDS011;55472;50.060;21.960;2023-03-23T05:17:58;7.38;;;3.85;;
68484;SDS011;55472;50.060;21.960;2023-03-23T05:20:24;10.05;;;3.95;;
68484;SDS011;55472;50.060;21.960;2023-03-23T05:22:51;8.88;;;3.63;;
68484;SDS011;55472;50.060;21.960;2023-03-23T05:25:17;8.50;;;3.60;;
68484;SDS011;55472;50.060;21.960;2023-03-23T05:27:45;7.20;;;3.30;;
68484;SDS011;55472;50.060;21.960;2023-03-23T05:30:18;10.95;;;3.95;;
68484;SDS011;55472;50.060;21.960;2023-03-23T05:32:47;8.32;;;3.85;;
68484;SDS011;55472;50.060;21.960;2023-03-23T05:35:17;9.48;;;4.32;;
68484;SDS011;55472;50.060;21.960;2023-03-23T05:37:45;9.27;;;4.03;;
68484;SDS011;55472;50.060;21.960;2023-03-23T05:40:12;8.87;;;3.97;;
68484;SDS011;55472;50.060;21.960;2023-03-23T05:42:39;8.55;;;3.50;;
68484;SDS011;55472;50.060;21.960;2023-03-23T05:45:07;9.18;;;4.32;;
68484;SDS011;55472;50.060;21.960;2023-03-23T05:47:36;11.15;;;3.78;;
68484;SDS011;55472;50.060;21.960;2023-03-23T05:50:05;8.23;;;4.10;;
68484;SDS011;55472;50.060;21.960;2023-03-23T05:52:34;9.90;;;3.93;;
68484;SDS011;55472;50.060;21.960;2023-03-23T05:55:02;8.43;;;3.78;;
68484;SDS011;55472;50.060;21.960;2023-03-23T05:57:29;8.07;;;3.42;;
68484;SDS011;55472;50.060;21.960;2023-03-23T05:59:56;7.50;;;3.78;;
68484;SDS011;55472;50.060;21.960;2023-03-23T06:02:23;8.85;;;3.88;;
68484;SDS011;55472;50.060;21.960;2023-03-23T06:04:50;9.33;;;3.87;;
68484;SDS011;55472;50.060;21.960;2023-03-23T06:07:23;7.32;;;3.58;;
68484;SDS011;55472;50.060;21.960;2023-03-23T06:09:51;9.57;;;3.55;;
68484;SDS011;55472;50.060;21.960;2023-03-23T06:12:18;8.32;;;3.58;;
68484;SDS011;55472;50.060;21.960;2023-03-23T06:14:47;8.13;;;3.55;;
68484;SDS011;55472;50.060;21.960;2023-03-23T06:17:14;7.87;;;3.67;;
68484;SDS011;55472;50.060;21.960;2023-03-23T06:19:42;10.77;;;4.13;;
68484;SDS011;55472;50.060;21.960;2023-03-23T06:22:12;8.48;;;3.58;;
68484;SDS011;55472;50.060;21.960;2023-03-23T06:24:39;9.77;;;3.90;;
68484;SDS011;55472;50.060;21.960;2023-03-23T06:27:05;10.73;;;4.32;;
68484;SDS011;55472;50.060;21.960;2023-03-23T06:29:32;12.00;;;4.70;;
68484;SDS011;55472;50.060;21.960;2023-03-23T06:31:59;10.98;;;4.13;;
68484;SDS011;55472;50.060;21.960;2023-03-23T06:34:28;9.38;;;4.00;;
68484;SDS011;55472;50.060;21.960;2023-03-23T06:36:55;8.82;;;4.00;;
68484;SDS011;55472;50.060;21.960;2023-03-23T06:39:22;7.70;;;3.88;;
68484;SDS011;55472;50.060;21.960;2023-03-23T06:41:49;7.97;;;3.60;;
68484;SDS011;55472;50.060;21.960;2023-03-23T06:44:16;9.77;;;3.60;;
68484;SDS011;55472;50.060;21.960;2023-03-23T06:46:42;8.40;;;3.78;;
68484;SDS011;55472;50.060;21.960;2023-03-23T06:49:09;7.43;;;3.80;;
68484;SDS011;55472;50.060;21.960;2023-03-23T06:51:36;9.13;;;3.40;;
68484;SDS011;55472;50.060;21.960;2023-03-23T06:54:03;15.23;;;5.87;;
68484;SDS011;55472;50.060;21.960;2023-03-23T06:56:30;11.02;;;4.20;;
68484;SDS011;55472;50.060;21.960;2023-03-23T06:58:57;8.50;;;3.40;;
68484;SDS011;55472;50.060;21.960;2023-03-23T07:01:23;9.63;;;3.85;;
68484;SDS011;55472;50.060;21.960;2023-03-23T07:03:49;7.20;;;3.40;;
68484;SDS011;55472;50.060;21.960;2023-03-23T07:06:15;8.23;;;3.60;;
68484;SDS011;55472;50.060;21.960;2023-03-23T07:08:44;7.53;;;3.45;;
68484;SDS011;55472;50.060;21.960;2023-03-23T07:11:10;9.73;;;3.67;;
68484;SDS011;55472;50.060;21.960;2023-03-23T07:13:37;9.52;;;3.83;;
68484;SDS011;55472;50.060;21.960;2023-03-23T07:16:04;7.68;;;3.65;;
68484;SDS011;55472;50.060;21.960;2023-03-23T07:18:32;8.27;;;3.60;;
68484;SDS011;55472;50.060;21.960;2023-03-23T07:20:58;7.60;;;3.90;;
68484;SDS011;55472;50.060;21.960;2023-03-23T07:23:25;9.30;;;3.75;;
68484;SDS011;55472;50.060;21.960;2023-03-23T07:25:51;7.00;;;3.50;;
68484;SDS011;55472;50.060;21.960;2023-03-23T07:28:19;8.38;;;3.85;;
68484;SDS011;55472;50.060;21.960;2023-03-23T07:30:45;9.23;;;3.90;;
68484;SDS011;55472;50.060;21.960;2023-03-23T07:33:11;8.77;;;3.60;;
68484;SDS011;55472;50.060;21.960;2023-03-23T07:35:38;8.93;;;3.45;;
68484;SDS011;55472;50.060;21.960;2023-03-23T07:38:05;7.55;;;3.55;;
68484;SDS011;55472;50.060;21.960;2023-03-23T07:40:32;6.97;;;3.50;;
68484;SDS011;55472;50.060;21.960;2023-03-23T07:42:59;6.77;;;3.20;;
68484;SDS011;55472;50.060;21.960;2023-03-23T07:45:26;8.20;;;3.45;;
68484;SDS011;55472;50.060;21.960;2023-03-23T07:47:54;8.15;;;3.45;;
68484;SDS011;55472;50.060;21.960;2023-03-23T07:50:20;6.38;;;2.85;;
68484;SDS011;55472;50.060;21.960;2023-03-23T07:52:56;8.48;;;3.70;;
68484;SDS011;55472;50.060;21.960;2023-03-23T07:55:23;14.05;;;4.43;;
68484;SDS011;55472;50.060;21.960;2023-03-23T07:57:53;8.95;;;3.55;;
68484;SDS011;55472;50.060;21.960;2023-03-23T08:00:20;8.05;;;3.40;;
68484;SDS011;55472;50.060;21.960;2023-03-23T08:02:52;6.82;;;3.15;;
68484;SDS011;55472;50.060;21.960;2023-03-23T08:05:21;8.60;;;3.57;;
68484;SDS011;55472;50.060;21.960;2023-03-23T08:07:51;7.93;;;3.08;;
68484;SDS011;55472;50.060;21.960;2023-03-23T08:10:22;7.40;;;3.28;;
68484;SDS011;55472;50.060;21.960;2023-03-23T08:12:53;7.68;;;3.40;;
68484;SDS011;55472;50.060;21.960;2023-03-23T08:15:21;6.28;;;3.08;;
68484;SDS011;55472;50.060;21.960;2023-03-23T08:17:49;6.85;;;3.40;;
68484;SDS011;55472;50.060;21.960;2023-03-23T08:20:16;9.18;;;3.53;;
68484;SDS011;55472;50.060;21.960;2023-03-23T08:22:48;9.17;;;3.40;;
68484;SDS011;55472;50.060;21.960;2023-03-23T08:25:18;8.52;;;3.30;;
68484;SDS011;55472;50.060;21.960;2023-03-23T08:27:45;7.90;;;3.13;;
68484;SDS011;55472;50.060;21.960;2023-03-23T08:30:12;8.23;;;3.33;;
68484;SDS011;55472;50.060;21.960;2023-03-23T08:32:45;8.23;;;3.28;;
68484;SDS011;55472;50.060;21.960;2023-03-23T08:35:12;6.85;;;3.10;;
68484;SDS011;55472;50.060;21.960;2023-03-23T08:37:41;5.93;;;2.83;;
68484;SDS011;55472;50.060;21.960;2023-03-23T08:40:09;8.55;;;2.90;;
68484;SDS011;55472;50.060;21.960;2023-03-23T08:42:40;6.88;;;3.13;;
68484;SDS011;55472;50.060;21.960;2023-03-23T08:45:09;8.17;;;3.10;;
68484;SDS011;55472;50.060;21.960;2023-03-23T08:47:37;6.75;;;3.03;;
68484;SDS011;55472;50.060;21.960;2023-03-23T08:50:04;7.57;;;2.90;;
68484;SDS011;55472;50.060;21.960;2023-03-23T08:52:32;6.22;;;2.95;;
68484;SDS011;55472;50.060;21.960;2023-03-23T08:54:59;6.50;;;3.10;;
68484;SDS011;55472;50.060;21.960;2023-03-23T08:57:25;7.30;;;2.67;;
68484;SDS011;55472;50.060;21.960;2023-03-23T08:59:51;7.18;;;2.75;;
68484;SDS011;55472;50.060;21.960;2023-03-23T09:02:25;6.40;;;3.05;;
68484;SDS011;55472;50.060;21.960;2023-03-23T09:04:53;7.68;;;2.78;;
68484;SDS011;55472;50.060;21.960;2023-03-23T09:07:19;4.90;;;2.40;;
68484;SDS011;55472;50.060;21.960;2023-03-23T09:09:46;8.63;;;2.80;;
68484;SDS011;55472;50.060;21.960;2023-03-23T09:12:12;5.57;;;2.75;;
68484;SDS011;55472;50.060;21.960;2023-03-23T09:14:39;6.93;;;2.88;;
68484;SDS011;55472;50.060;21.960;2023-03-23T09:17:06;6.95;;;2.95;;
68484;SDS011;55472;50.060;21.960;2023-03-23T09:19:32;11.10;;;3.33;;
68484;SDS011;55472;50.060;21.960;2023-03-23T09:22:00;10.43;;;3.00;;
68484;SDS011;55472;50.060;21.960;2023-03-23T09:24:27;9.65;;;3.13;;
68484;SDS011;55472;50.060;21.960;2023-03-23T09:26:54;7.28;;;2.97;;
68484;SDS011;55472;50.060;21.960;2023-03-23T09:29:20;7.23;;;2.80;;
68484;SDS011;55472;50.060;21.960;2023-03-23T09:31:46;6.40;;;3.13;;
68484;SDS011;55472;50.060;21.960;2023-03-23T09:34:13;7.80;;;2.90;;
68484;SDS011;55472;50.060;21.960;2023-03-23T09:36:43;8.35;;;2.85;;
68484;SDS011;55472;50.060;21.960;2023-03-23T09:39:10;6.88;;;3.40;;
68484;SDS011;55472;50.060;21.960;2023-03-23T09:41:54;7.78;;;3.45;;
68484;SDS011;55472;50.060;21.960;2023-03-23T09:45:15;7.43;;;3.20;;
68484;SDS011;55472;50.060;21.960;2023-03-23T09:57:02;10.90;;;4.05;;
68484;SDS011;55472;50.060;21.960;2023-03-23T09:59:34;10.30;;;3.72;;
68484;SDS011;55472;50.060;21.960;2023-03-23T10:02:28;6.97;;;3.10;;
68484;SDS011;55472;50.060;21.960;2023-03-23T10:08:12;8.88;;;3.55;;
68484;SDS011;55472;50.060;21.960;2023-03-23T10:16:24;6.13;;;2.80;;
68484;SDS011;55472;50.060;21.960;2023-03-23T10:19:00;7.47;;;3.20;;
68484;SDS011;55472;50.060;21.960;2023-03-23T10:22:05;9.45;;;3.72;;
68484;SDS011;55472;50.060;21.960;2023-03-23T10:24:41;7.45;;;3.00;;
68484;SDS011;55472;50.060;21.960;2023-03-23T10:30:39;9.37;;;3.50;;
68484;SDS011;55472;50.060;21.960;2023-03-23T10:33:25;6.65;;;3.13;;
68484;SDS011;55472;50.060;21.960;2023-03-23T10:39:06;7.72;;;3.42;;
68484;SDS011;55472;50.060;21.960;2023-03-23T10:41:41;8.95;;;3.60;;
68484;SDS011;55472;50.060;21.960;2023-03-23T10:44:16;8.33;;;3.50;;
68484;SDS011;55472;50.060;21.960;2023-03-23T10:46:58;7.60;;;3.65;;
68484;SDS011;55472;50.060;21.960;2023-03-23T10:52:24;6.43;;;3.30;;
68484;SDS011;55472;50.060;21.960;2023-03-23T10:55:13;8.25;;;3.50;;
68484;SDS011;55472;50.060;21.960;2023-03-23T10:57:46;7.27;;;3.37;;
68484;SDS011;55472;50.060;21.960;2023-03-23T11:00:30;7.60;;;3.53;;
68484;SDS011;55472;50.060;21.960;2023-03-23T11:05:35;8.00;;;3.67;;
68484;SDS011;55472;50.060;21.960;2023-03-23T11:08:18;7.05;;;3.33;;
68484;SDS011;55472;50.060;21.960;2023-03-23T11:10:55;10.57;;;3.90;;
68484;SDS011;55472;50.060;21.960;2023-03-23T11:13:39;8.18;;;4.35;;
68484;SDS011;55472;50.060;21.960;2023-03-23T11:16:10;7.93;;;3.30;;
68484;SDS011;55472;50.060;21.960;2023-03-23T11:18:51;7.32;;;3.40;;
68484;SDS011;55472;50.060;21.960;2023-03-23T11:21:19;7.30;;;3.42;;
68484;SDS011;55472;50.060;21.960;2023-03-23T11:23:59;8.73;;;3.80;;
68484;SDS011;55472;50.060;21.960;2023-03-23T11:31:32;8.20;;;3.60;;
68484;SDS011;55472;50.060;21.960;2023-03-23T11:37:17;8.37;;;3.60;;
68484;SDS011;55472;50.060;21.960;2023-03-23T11:40:03;8.55;;;3.80;;
68484;SDS011;55472;50.060;21.960;2023-03-23T11:42:56;7.35;;;3.75;;
68484;SDS011;55472;50.060;21.960;2023-03-23T11:51:29;7.77;;;3.37;;
68484;SDS011;55472;50.060;21.960;2023-03-23T11:56:51;7.90;;;3.27;;
68484;SDS011;55472;50.060;21.960;2023-03-23T11:59:31;7.07;;;3.55;;
68484;SDS011;55472;50.060;21.960;2023-03-23T12:13:59;11.48;;;3.13;;
68484;SDS011;55472;50.060;21.960;2023-03-23T12:49:19;7.20;;;3.40;;
68484;SDS011;55472;50.060;21.960;2023-03-23T12:52:18;7.22;;;3.00;;
68484;SDS011;55472;50.060;21.960;2023-03-23T12:55:02;9.88;;;3.45;;
68484;SDS011;55472;50.060;21.960;2023-03-23T12:57:46;8.38;;;3.63;;
68484;SDS011;55472;50.060;21.960;2023-03-23T13:05:37;6.63;;;3.17;;
68484;SDS011;55472;50.060;21.960;2023-03-23T13:10:45;6.95;;;3.20;;
68484;SDS011;55472;50.060;21.960;2023-03-23T13:13:18;7.15;;;3.08;;
68484;SDS011;55472;50.060;21.960;2023-03-23T13:18:49;7.25;;;3.10;;
68484;SDS011;55472;50.060;21.960;2023-03-23T13:24:26;7.18;;;2.80;;
68484;SDS011;55472;50.060;21.960;2023-03-23T13:26:55;6.97;;;2.88;;
68484;SDS011;55472;50.060;21.960;2023-03-23T13:29:23;9.17;;;3.07;;
68484;SDS011;55472;50.060;21.960;2023-03-23T13:32:03;6.63;;;3.40;;
68484;SDS011;55472;50.060;21.960;2023-03-23T13:34:41;7.47;;;3.40;;
68484;SDS011;55472;50.060;21.960;2023-03-23T13:37:19;7.43;;;3.75;;
68484;SDS011;55472;50.060;21.960;2023-03-23T13:39:52;8.48;;;3.50;;
68484;SDS011;55472;50.060;21.960;2023-03-23T13:42:24;7.27;;;3.60;;
68484;SDS011;55472;50.060;21.960;2023-03-23T13:47:44;6.20;;;3.17;;
68484;SDS011;55472;50.060;21.960;2023-03-23T14:08:21;7.43;;;3.87;;
68484;SDS011;55472;50.060;21.960;2023-03-23T14:11:08;7.50;;;4.30;;
68484;SDS011;55472;50.060;21.960;2023-03-23T14:13:44;8.07;;;3.97;;
68484;SDS011;55472;50.060;21.960;2023-03-23T14:19:19;10.25;;;4.15;;
68484;SDS011;55472;50.060;21.960;2023-03-23T14:21:56;9.33;;;4.40;;
68484;SDS011;55472;50.060;21.960;2023-03-23T14:29:45;16.60;;;6.10;;
68484;SDS011;55472;50.060;21.960;2023-03-23T14:32:16;10.55;;;4.88;;
68484;SDS011;55472;50.060;21.960;2023-03-23T14:34:46;5.40;;;3.00;;
68484;SDS011;55472;50.060;21.960;2023-03-23T14:37:14;7.47;;;3.15;;
68484;SDS011;55472;50.060;21.960;2023-03-23T14:39:44;8.38;;;3.75;;
68484;SDS011;55472;50.060;21.960;2023-03-23T14:42:15;9.05;;;3.50;;
68484;SDS011;55472;50.060;21.960;2023-03-23T14:44:46;9.75;;;3.83;;
68484;SDS011;55472;50.060;21.960;2023-03-23T14:47:19;9.80;;;3.97;;
68484;SDS011;55472;50.060;21.960;2023-03-23T14:49:57;6.82;;;3.50;;
68484;SDS011;55472;50.060;21.960;2023-03-23T14:52:27;8.82;;;3.40;;
68484;SDS011;55472;50.060;21.960;2023-03-23T14:55:10;7.82;;;3.70;;
68484;SDS011;55472;50.060;21.960;2023-03-23T14:57:40;6.00;;;3.35;;
68484;SDS011;55472;50.060;21.960;2023-03-23T15:00:14;7.20;;;3.50;;
68484;SDS011;55472;50.060;21.960;2023-03-23T15:02:51;9.57;;;4.28;;
68484;SDS011;55472;50.060;21.960;2023-03-23T15:05:30;8.95;;;3.95;;
68484;SDS011;55472;50.060;21.960;2023-03-23T15:08:03;7.57;;;3.53;;
68484;SDS011;55472;50.060;21.960;2023-03-23T15:10:32;8.07;;;3.88;;
68484;SDS011;55472;50.060;21.960;2023-03-23T15:12:59;10.40;;;3.93;;
68484;SDS011;55472;50.060;21.960;2023-03-23T15:17:56;10.00;;;3.85;;
68484;SDS011;55472;50.060;21.960;2023-03-23T15:20:26;11.48;;;4.05;;
68484;SDS011;55472;50.060;21.960;2023-03-23T15:23:05;8.63;;;3.88;;
68484;SDS011;55472;50.060;21.960;2023-03-23T15:25:33;9.63;;;3.50;;
68484;SDS011;55472;50.060;21.960;2023-03-23T15:30:47;9.18;;;3.55;;
68484;SDS011;55472;50.060;21.960;2023-03-23T15:33:15;14.93;;;6.00;;
68484;SDS011;55472;50.060;21.960;2023-03-23T15:35:49;10.70;;;5.65;;
68484;SDS011;55472;50.060;21.960;2023-03-23T15:40:56;17.05;;;8.23;;
68484;SDS011;55472;50.060;21.960;2023-03-23T15:43:28;15.10;;;6.20;;
68484;SDS011;55472;50.060;21.960;2023-03-23T15:46:22;11.68;;;4.50;;
68484;SDS011;55472;50.060;21.960;2023-03-23T15:51:29;11.60;;;4.77;;
68484;SDS011;55472;50.060;21.960;2023-03-23T15:53:58;14.07;;;5.07;;
68484;SDS011;55472;50.060;21.960;2023-03-23T15:56:24;11.00;;;4.05;;
68484;SDS011;55472;50.060;21.960;2023-03-23T15:58:52;17.05;;;6.72;;
68484;SDS011;55472;50.060;21.960;2023-03-23T16:01:20;12.52;;;5.97;;
68484;SDS011;55472;50.060;21.960;2023-03-23T16:06:33;14.25;;;6.32;;
68484;SDS011;55472;50.060;21.960;2023-03-23T16:09:00;13.45;;;6.22;;
68484;SDS011;55472;50.060;21.960;2023-03-23T16:11:28;31.30;;;11.30;;
68484;SDS011;55472;50.060;21.960;2023-03-23T16:13:56;38.78;;;16.15;;
68484;SDS011;55472;50.060;21.960;2023-03-23T16:16:40;48.23;;;21.63;;
68484;SDS011;55472;50.060;21.960;2023-03-23T16:19:12;21.13;;;9.93;;
68484;SDS011;55472;50.060;21.960;2023-03-23T16:21:40;18.13;;;8.02;;
68484;SDS011;55472;50.060;21.960;2023-03-23T16:24:08;29.55;;;13.80;;
68484;SDS011;55472;50.060;21.960;2023-03-23T16:26:35;44.53;;;21.05;;
68484;SDS011;55472;50.060;21.960;2023-03-23T16:29:08;60.20;;;31.00;;
68484;SDS011;55472;50.060;21.960;2023-03-23T16:31:37;29.30;;;14.57;;
68484;SDS011;55472;50.060;21.960;2023-03-23T16:34:04;24.85;;;10.15;;
68484;SDS011;55472;50.060;21.960;2023-03-23T16:36:31;15.50;;;7.35;;
68484;SDS011;55472;50.060;21.960;2023-03-23T16:38:58;19.40;;;9.85;;
68484;SDS011;55472;50.060;21.960;2023-03-23T16:41:24;25.63;;;13.40;;
68484;SDS011;55472;50.060;21.960;2023-03-23T16:43:51;46.30;;;24.38;;
68484;SDS011;55472;50.060;21.960;2023-03-23T16:46:17;33.90;;;19.25;;
68484;SDS011;55472;50.060;21.960;2023-03-23T16:48:43;45.25;;;30.25;;
68484;SDS011;55472;50.060;21.960;2023-03-23T16:51:09;32.75;;;15.48;;
68484;SDS011;55472;50.060;21.960;2023-03-23T16:53:36;29.97;;;12.27;;
68484;SDS011;55472;50.060;21.960;2023-03-23T16:56:02;25.33;;;9.85;;
68484;SDS011;55472;50.060;21.960;2023-03-23T16:58:29;27.13;;;10.70;;
68484;SDS011;55472;50.060;21.960;2023-03-23T17:00:56;29.67;;;10.18;;
68484;SDS011;55472;50.060;21.960;2023-03-23T17:03:22;24.85;;;9.18;;
68484;SDS011;55472;50.060;21.960;2023-03-23T17:05:51;22.97;;;8.93;;
68484;SDS011;55472;50.060;21.960;2023-03-23T17:08:18;24.70;;;10.02;;
68484;SDS011;55472;50.060;21.960;2023-03-23T17:11:53;23.05;;;9.60;;
68484;SDS011;55472;50.060;21.960;2023-03-23T17:14:22;27.52;;;10.45;;
68484;SDS011;55472;50.060;21.960;2023-03-23T17:16:54;28.85;;;11.60;;
68484;SDS011;55472;50.060;21.960;2023-03-23T17:19:32;30.60;;;13.23;;
68484;SDS011;55472;50.060;21.960;2023-03-23T17:21:58;41.88;;;16.58;;
68484;SDS011;55472;50.060;21.960;2023-03-23T17:24:25;146.10;;;45.95;;
68484;SDS011;55472;50.060;21.960;2023-03-23T17:26:52;40.92;;;15.82;;
68484;SDS011;55472;50.060;21.960;2023-03-23T17:29:19;20.80;;;8.40;;
68484;SDS011;55472;50.060;21.960;2023-03-23T17:31:47;20.00;;;8.13;;
68484;SDS011;55472;50.060;21.960;2023-03-23T17:34:14;28.60;;;11.32;;